Time;durP1;ratioP1;P1;durP2;ratioP2;P2;SDS_P1;SDS_P2;PMS_P1;PMS_P2;Temp;Humidity;BMP_temperature;BMP_pressure;BME280_temperature;BME280_humidity;BME280_pressure;Samples;Min_cycle;Max_cycle;Signal;HPM_P1;HPM_P2
2023/12/07 00:01:05;;;;;;;42.90;25.17;;;4.20;99.90;;;;;;4991440;28;20183;-74
2023/12/07 00:03:30;;;;;;;38.33;24.10;;;4.20;99.90;;;;;;4993569;28;20180;-76
2023/12/07 00:05:56;;;;;;;35.57;23.47;;;4.20;99.90;;;;;;4992786;28;20442;-74
2023/12/07 00:08:22;;;;;;;38.90;24.97;;;4.20;99.90;;;;;;4992736;28;20184;-74
2023/12/07 00:10:47;;;;;;;43.73;27.13;;;4.20;99.90;;;;;;4993245;28;20240;-74
2023/12/07 00:13:13;;;;;;;34.80;22.83;;;4.20;99.90;;;;;;4991600;28;20780;-74
2023/12/07 00:15:39;;;;;;;44.70;27.50;;;4.20;99.90;;;;;;4994003;28;20782;-73
2023/12/07 00:18:05;;;;;;;36.90;23.37;;;4.20;99.90;;;;;;4992389;28;20201;-74
2023/12/07 00:20:31;;;;;;;39.50;25.80;;;4.20;99.90;;;;;;4993660;28;20470;-75
2023/12/07 00:22:56;;;;;;;41.37;24.17;;;4.20;99.90;;;;;;4992925;28;20439;-74
2023/12/07 00:25:22;;;;;;;39.77;26.20;;;4.20;99.90;;;;;;4993085;28;20612;-76
2023/12/07 00:27:49;;;;;;;47.00;24.10;;;4.20;99.90;;;;;;4993394;28;21070;-74
2023/12/07 00:30:15;;;;;;;36.10;24.60;;;4.20;99.90;;;;;;4992005;28;20187;-76
2023/12/07 00:32:43;;;;;;;41.70;25.67;;;4.10;99.90;;;;;;4994380;28;20473;-74
2023/12/07 00:35:12;;;;;;;43.80;25.77;;;4.10;99.90;;;;;;4992094;28;21015;-74
2023/12/07 00:37:38;;;;;;;40.70;25.10;;;4.20;99.90;;;;;;4994757;28;20430;-75
2023/12/07 00:40:05;;;;;;;40.13;25.07;;;4.20;99.90;;;;;;4991728;28;20430;-75
2023/12/07 00:42:30;;;;;;;39.80;25.97;;;4.10;99.90;;;;;;4994263;28;20435;-74
2023/12/07 00:44:56;;;;;;;34.77;23.43;;;4.10;99.90;;;;;;4992593;28;20457;-74
2023/12/07 00:47:22;;;;;;;44.90;26.77;;;4.10;99.90;;;;;;4993327;28;20431;-75
2023/12/07 00:49:48;;;;;;;38.67;25.07;;;4.10;99.90;;;;;;4993735;28;20445;-77
2023/12/07 00:52:14;;;;;;;40.00;25.37;;;4.10;99.90;;;;;;4991516;28;20485;-76
2023/12/07 00:54:40;;;;;;;40.27;25.90;;;4.10;99.90;;;;;;4994840;28;20190;-76
2023/12/07 00:57:06;;;;;;;41.33;26.53;;;4.10;99.90;;;;;;4992947;28;20238;-74
2023/12/07 00:59:33;;;;;;;42.27;27.37;;;4.10;99.90;;;;;;4994280;28;20187;-75
2023/12/07 01:02:06;;;;;;;43.17;27.53;;;4.10;99.90;;;;;;4992009;28;20484;-75
2023/12/07 01:04:32;;;;;;;39.50;24.80;;;4.10;99.90;;;;;;4994090;28;20437;-76
2023/12/07 01:06:59;;;;;;;36.97;23.87;;;4.10;99.90;;;;;;4993453;28;20941;-77
2023/12/07 01:09:25;;;;;;;42.77;26.63;;;4.10;99.90;;;;;;4993396;28;20422;-75
2023/12/07 01:11:51;;;;;;;41.20;27.00;;;4.10;99.90;;;;;;4993850;28;20458;-74
2023/12/07 01:14:18;;;;;;;43.60;26.80;;;4.10;99.90;;;;;;4995469;28;20438;-75
2023/12/07 01:16:44;;;;;;;45.80;27.77;;;4.10;99.90;;;;;;4996885;28;20459;-75
2023/12/07 01:19:14;;;;;;;44.00;26.93;;;4.10;99.90;;;;;;4995567;28;20453;-76
2023/12/07 01:21:40;;;;;;;49.07;26.60;;;4.10;99.90;;;;;;4997638;28;20463;-74
2023/12/07 01:24:07;;;;;;;41.40;25.00;;;4.10;99.90;;;;;;4994988;28;20438;-76
2023/12/07 01:26:32;;;;;;;45.53;27.10;;;4.20;99.90;;;;;;4997328;28;20431;-74
2023/12/07 01:28:58;;;;;;;47.37;25.37;;;4.20;99.90;;;;;;4995551;28;20437;-74
2023/12/07 01:31:24;;;;;;;44.67;26.40;;;4.10;99.90;;;;;;4995237;28;20210;-75
2023/12/07 01:33:49;;;;;;;40.40;24.60;;;4.10;99.90;;;;;;4996535;28;20196;-74
2023/12/07 01:36:15;;;;;;;42.60;24.93;;;4.10;99.90;;;;;;4995657;28;20231;-75
2023/12/07 01:38:41;;;;;;;37.17;24.40;;;4.10;99.90;;;;;;4998551;28;20203;-74
2023/12/07 01:41:06;;;;;;;41.53;25.40;;;4.10;99.90;;;;;;4996228;28;20220;-76
2023/12/07 01:43:32;;;;;;;40.87;23.73;;;4.10;99.90;;;;;;4996417;28;20268;-74
2023/12/07 01:45:59;;;;;;;43.70;24.60;;;4.10;99.90;;;;;;4996253;28;20187;-75
2023/12/07 01:48:27;;;;;;;43.37;26.27;;;4.10;99.90;;;;;;4996831;28;20415;-76
2023/12/07 01:50:54;;;;;;;39.57;23.70;;;4.10;99.90;;;;;;4994132;28;20906;-74
2023/12/07 01:53:22;;;;;;;41.47;25.63;;;4.10;99.90;;;;;;4996632;28;20529;-77
2023/12/07 01:55:49;;;;;;;38.50;23.00;;;4.10;99.90;;;;;;4996789;28;20517;-77
2023/12/07 01:58:17;;;;;;;40.90;24.63;;;4.00;99.90;;;;;;4997973;28;20431;-75
2023/12/07 02:00:44;;;;;;;39.43;23.93;;;4.00;99.90;;;;;;4996194;28;20447;-74
2023/12/07 02:03:11;;;;;;;42.90;23.70;;;4.00;99.90;;;;;;4995849;28;20431;-74
2023/12/07 02:05:40;;;;;;;37.20;24.63;;;4.00;99.90;;;;;;4997629;28;20433;-75
2023/12/07 02:08:05;;;;;;;42.40;24.27;;;4.00;99.90;;;;;;4995799;28;20465;-74
2023/12/07 02:10:31;;;;;;;43.97;25.60;;;4.00;99.90;;;;;;4998007;28;20937;-74
2023/12/07 02:12:57;;;;;;;37.17;22.10;;;4.10;99.90;;;;;;4996602;28;20211;-74
2023/12/07 02:15:23;;;;;;;35.23;21.30;;;4.00;99.90;;;;;;4997430;28;20767;-74
2023/12/07 02:18:14;;;;;;;31.83;20.20;;;4.00;99.90;;;;;;4997303;28;20294;-74
2023/12/07 02:20:51;;;;;;;37.93;22.00;;;4.00;99.90;;;;;;4998327;28;20176;-74
2023/12/07 02:23:18;;;;;;;37.83;22.47;;;4.00;99.90;;;;;;4996211;28;20430;-74
2023/12/07 02:25:51;;;;;;;40.30;23.83;;;4.00;99.90;;;;;;4995210;28;20427;-74
2023/12/07 02:28:17;;;;;;;35.70;21.77;;;4.00;99.90;;;;;;5010504;28;20434;-74
2023/12/07 02:30:43;;;;;;;37.43;22.17;;;3.90;99.90;;;;;;4996512;28;20488;-75
2023/12/07 02:33:10;;;;;;;40.70;21.00;;;3.90;99.90;;;;;;4996452;28;20336;-74
2023/12/07 02:35:37;;;;;;;36.17;20.53;;;4.00;99.90;;;;;;4981631;28;20426;-77
2023/12/07 02:38:03;;;;;;;36.07;22.57;;;3.90;99.90;;;;;;4994523;28;20958;-76
2023/12/07 02:40:30;;;;;;;31.13;21.40;;;3.90;99.90;;;;;;4997480;28;20426;-74
2023/12/07 02:42:57;;;;;;;36.43;22.50;;;3.90;99.90;;;;;;4996007;28;20990;-76
2023/12/07 02:45:24;;;;;;;35.23;21.93;;;3.90;99.90;;;;;;4996835;28;20466;-75
2023/12/07 02:47:50;;;;;;;29.90;19.60;;;3.90;99.90;;;;;;4996298;28;21441;-74
2023/12/07 02:50:15;;;;;;;32.63;21.43;;;3.90;99.90;;;;;;4995191;28;20432;-75
2023/12/07 02:52:41;;;;;;;34.43;21.07;;;3.90;99.90;;;;;;4998536;28;20595;-75
2023/12/07 02:55:07;;;;;;;31.70;19.27;;;3.90;99.90;;;;;;4995357;28;20218;-74
2023/12/07 02:57:36;;;;;;;33.20;21.17;;;3.90;99.90;;;;;;4999715;28;20253;-75
2023/12/07 03:00:07;;;;;;;31.90;20.47;;;3.90;99.90;;;;;;4995798;28;20990;-76
2023/12/07 03:02:35;;;;;;;31.60;19.37;;;3.80;99.90;;;;;;4998080;28;20431;-76
2023/12/07 03:05:01;;;;;;;33.90;20.07;;;3.80;99.90;;;;;;5010515;28;20519;-77
2023/12/07 03:07:26;;;;;;;33.40;20.83;;;3.80;99.90;;;;;;4997973;28;20488;-75
2023/12/07 03:09:52;;;;;;;33.57;20.77;;;3.80;99.90;;;;;;4995023;28;21004;-74
2023/12/07 03:12:18;;;;;;;28.67;17.87;;;3.80;99.90;;;;;;4996153;28;20228;-75
2023/12/07 03:14:43;;;;;;;31.23;19.13;;;3.80;99.90;;;;;;4996447;28;20215;-76
2023/12/07 03:17:09;;;;;;;39.00;20.30;;;3.80;99.90;;;;;;4979613;28;20179;-77
2023/12/07 03:19:38;;;;;;;34.03;20.83;;;3.80;99.90;;;;;;4998234;28;20183;-74
2023/12/07 03:22:06;;;;;;;30.50;19.07;;;3.80;99.90;;;;;;4994124;28;20215;-75
2023/12/07 03:24:34;;;;;;;31.53;19.40;;;3.70;99.90;;;;;;4998120;28;20461;-74
2023/12/07 03:27:00;;;;;;;35.67;20.90;;;3.80;99.90;;;;;;4995001;28;20422;-74
2023/12/07 03:29:26;;;;;;;31.50;19.77;;;3.80;99.90;;;;;;4980038;28;20880;-74
2023/12/07 03:31:51;;;;;;;34.00;20.77;;;3.80;99.90;;;;;;4994107;28;20536;-75
2023/12/07 03:34:17;;;;;;;32.43;19.00;;;3.70;99.90;;;;;;4996426;28;20183;-75
2023/12/07 03:36:46;;;;;;;30.97;18.23;;;3.80;99.90;;;;;;4995909;28;20195;-75
2023/12/07 03:39:13;;;;;;;32.13;19.87;;;3.70;99.90;;;;;;4995867;28;20192;-76
2023/12/07 03:41:38;;;;;;;32.20;19.83;;;3.60;99.90;;;;;;4998301;28;20487;-74
2023/12/07 03:44:04;;;;;;;28.73;18.83;;;3.60;99.90;;;;;;4996198;28;20439;-74
2023/12/07 03:46:30;;;;;;;30.37;19.13;;;3.60;99.90;;;;;;4997994;28;20198;-74
2023/12/07 03:48:55;;;;;;;34.67;20.27;;;3.60;99.90;;;;;;4995696;28;20183;-74
2023/12/07 03:51:21;;;;;;;30.33;18.23;;;3.60;99.90;;;;;;4997590;28;20279;-74
2023/12/07 03:53:47;;;;;;;29.93;17.40;;;3.60;99.90;;;;;;4996392;28;20168;-74
2023/12/07 03:56:33;;;;;;;30.73;18.30;;;3.60;99.90;;;;;;4995860;28;20483;-75
2023/12/07 03:58:59;;;;;;;30.93;18.17;;;3.60;99.90;;;;;;4996035;28;20243;-74
2023/12/07 04:01:26;;;;;;;29.83;17.53;;;3.60;99.90;;;;;;4998463;28;20766;-73
2023/12/07 04:03:53;;;;;;;29.07;16.30;;;3.60;99.90;;;;;;4995479;28;20525;-74
2023/12/07 04:06:20;;;;;;;29.73;18.33;;;3.60;99.90;;;;;;4994983;28;20444;-74
2023/12/07 04:08:46;;;;;;;32.67;18.77;;;3.70;99.90;;;;;;4995134;28;20940;-74
2023/12/07 04:11:15;;;;;;;32.33;19.93;;;3.60;99.90;;;;;;4996298;28;20430;-77
2023/12/07 04:13:42;;;;;;;31.13;18.47;;;3.60;99.90;;;;;;4998404;28;20191;-73
2023/12/07 04:16:08;;;;;;;30.90;19.47;;;3.70;99.90;;;;;;4995246;28;20513;-74
2023/12/07 04:18:34;;;;;;;26.53;16.10;;;3.70;99.90;;;;;;4998589;28;20992;-75
2023/12/07 04:21:00;;;;;;;31.90;17.70;;;3.70;99.90;;;;;;4994467;28;20430;-75
2023/12/07 04:23:25;;;;;;;33.40;18.60;;;3.70;99.90;;;;;;4998728;28;20267;-75
2023/12/07 04:25:51;;;;;;;30.63;17.10;;;3.70;99.90;;;;;;4995270;28;20244;-75
2023/12/07 04:28:17;;;;;;;29.07;16.87;;;3.70;99.90;;;;;;4994330;28;20182;-75
2023/12/07 04:30:43;;;;;;;29.53;16.03;;;3.70;99.90;;;;;;4995253;28;20202;-75
2023/12/07 04:33:09;;;;;;;29.87;17.80;;;3.80;99.90;;;;;;4994413;28;20473;-74
2023/12/07 04:35:34;;;;;;;28.53;17.57;;;3.80;99.90;;;;;;4998516;28;20190;-76
2023/12/07 04:38:00;;;;;;;24.13;15.73;;;3.80;99.90;;;;;;4993594;28;20203;-76
2023/12/07 04:40:26;;;;;;;27.10;15.33;;;3.80;99.90;;;;;;4998655;28;20274;-75
2023/12/07 04:42:52;;;;;;;26.37;16.80;;;3.80;99.90;;;;;;4993820;28;20180;-75
2023/12/07 04:45:18;;;;;;;31.77;16.87;;;3.80;99.90;;;;;;4996418;28;20183;-77
2023/12/07 04:47:43;;;;;;;32.20;17.07;;;3.80;99.90;;;;;;4998144;28;20187;-75
2023/12/07 04:50:12;;;;;;;26.70;15.70;;;3.80;99.90;;;;;;4998753;28;20426;-76
2023/12/07 04:52:38;;;;;;;26.00;16.67;;;3.80;99.90;;;;;;5001508;28;20216;-75
2023/12/07 04:55:06;;;;;;;29.07;17.07;;;3.80;99.90;;;;;;4999061;28;20990;-77
2023/12/07 04:57:33;;;;;;;32.57;16.73;;;3.80;99.90;;;;;;5004498;28;20419;-76
2023/12/07 04:59:59;;;;;;;28.47;16.67;;;3.80;99.90;;;;;;4999044;28;20984;-77
2023/12/07 05:02:24;;;;;;;29.93;16.97;;;3.90;99.90;;;;;;5001270;28;20431;-74
2023/12/07 05:04:50;;;;;;;27.27;16.33;;;3.90;99.90;;;;;;4999123;28;20187;-74
2023/12/07 05:07:16;;;;;;;26.30;16.93;;;3.90;99.90;;;;;;4999928;28;20199;-74
2023/12/07 05:09:41;;;;;;;25.40;16.30;;;3.90;99.90;;;;;;5002526;28;20267;-75
2023/12/07 05:12:07;;;;;;;23.20;14.90;;;3.90;99.90;;;;;;4999160;28;20248;-75
2023/12/07 05:14:34;;;;;;;28.77;16.83;;;3.90;99.90;;;;;;5000941;28;20249;-75
2023/12/07 05:17:00;;;;;;;24.30;16.20;;;3.90;99.90;;;;;;4999139;28;20240;-74
2023/12/07 05:19:26;;;;;;;25.80;15.50;;;3.90;99.90;;;;;;5002340;28;20435;-74
2023/12/07 05:21:52;;;;;;;32.60;16.93;;;3.90;99.90;;;;;;4996104;28;20484;-75
2023/12/07 05:24:18;;;;;;;25.70;15.73;;;3.90;99.90;;;;;;4999852;28;20429;-75
2023/12/07 05:26:48;;;;;;;26.27;16.40;;;3.90;99.90;;;;;;5001258;28;20427;-75
2023/12/07 05:29:14;;;;;;;27.07;16.87;;;3.90;99.90;;;;;;4999709;28;20435;-75
2023/12/07 05:31:40;;;;;;;24.07;14.53;;;3.90;99.90;;;;;;5002175;28;20983;-75
2023/12/07 05:34:07;;;;;;;24.73;16.03;;;3.90;99.90;;;;;;4999713;28;20439;-74
2023/12/07 05:36:33;;;;;;;26.00;16.57;;;3.90;99.90;;;;;;5002144;28;20182;-74
2023/12/07 05:38:59;;;;;;;28.53;16.10;;;3.90;99.90;;;;;;4993161;28;20851;-76
2023/12/07 05:41:28;;;;;;;26.07;15.73;;;3.90;99.90;;;;;;4991431;28;20249;-73
2023/12/07 05:43:53;;;;;;;30.13;17.50;;;3.90;99.90;;;;;;4990264;28;20435;-77
2023/12/07 05:46:19;;;;;;;25.60;16.10;;;3.90;99.90;;;;;;4992291;28;20433;-75
2023/12/07 05:48:45;;;;;;;25.87;15.60;;;3.90;99.90;;;;;;4991780;28;20509;-75
2023/12/07 05:51:17;;;;;;;23.20;15.27;;;3.90;99.90;;;;;;4992296;28;20470;-74
2023/12/07 05:53:43;;;;;;;25.17;14.90;;;3.90;99.90;;;;;;4988131;28;20481;-75
2023/12/07 05:56:10;;;;;;;25.70;15.83;;;3.90;99.90;;;;;;4992363;28;20910;-77
2023/12/07 05:58:36;;;;;;;24.73;16.63;;;3.90;99.90;;;;;;4994859;28;20427;-75
2023/12/07 06:01:02;;;;;;;25.03;15.57;;;4.00;99.90;;;;;;4995329;28;20434;-76
2023/12/07 06:03:28;;;;;;;25.37;17.57;;;3.90;99.90;;;;;;4993088;28;20437;-74
2023/12/07 06:05:54;;;;;;;28.00;15.60;;;3.90;99.90;;;;;;4992968;28;20434;-74
2023/12/07 06:08:20;;;;;;;27.07;16.73;;;3.90;99.90;;;;;;4993550;28;20434;-75
2023/12/07 06:10:45;;;;;;;24.87;15.53;;;3.90;99.90;;;;;;4992828;28;20344;-76
2023/12/07 06:13:13;;;;;;;25.10;15.77;;;3.90;99.90;;;;;;4977281;28;20958;-76
2023/12/07 06:15:39;;;;;;;24.10;15.27;;;3.90;99.90;;;;;;4990921;28;20195;-76
2023/12/07 06:18:05;;;;;;;27.50;16.67;;;3.90;99.90;;;;;;4990378;28;20444;-74
2023/12/07 06:20:31;;;;;;;25.90;15.40;;;3.90;99.90;;;;;;4989858;28;20815;-74
2023/12/07 06:22:57;;;;;;;24.40;15.07;;;3.90;99.90;;;;;;4991468;28;20444;-75
2023/12/07 06:25:23;;;;;;;23.33;15.70;;;3.80;99.90;;;;;;4990166;28;20214;-74
2023/12/07 06:27:49;;;;;;;21.00;12.73;;;3.70;99.90;;;;;;4991155;28;20530;-74
2023/12/07 06:30:15;;;;;;;24.80;16.17;;;3.70;99.90;;;;;;4991374;28;20506;-74
2023/12/07 06:32:41;;;;;;;26.20;15.20;;;3.60;99.90;;;;;;4990459;28;20479;-75
2023/12/07 06:35:08;;;;;;;24.90;15.70;;;3.60;99.90;;;;;;4991707;28;20427;-74
2023/12/07 06:37:34;;;;;;;23.57;15.13;;;3.60;99.90;;;;;;5005556;28;20188;-74
2023/12/07 06:40:00;;;;;;;25.60;15.37;;;3.60;99.90;;;;;;4992204;28;20501;-74
2023/12/07 06:42:26;;;;;;;22.83;15.10;;;3.50;99.90;;;;;;4986907;28;20529;-73
2023/12/07 06:44:52;;;;;;;26.60;16.90;;;3.50;99.90;;;;;;4991246;28;20426;-74
2023/12/07 06:47:18;;;;;;;21.23;14.67;;;3.50;99.90;;;;;;4992057;28;20761;-74
2023/12/07 06:49:45;;;;;;;24.80;15.80;;;3.50;99.90;;;;;;4992389;28;20198;-74
2023/12/07 06:52:11;;;;;;;24.10;14.57;;;3.50;99.90;;;;;;4993413;28;20963;-74
2023/12/07 06:54:38;;;;;;;24.37;15.40;;;3.50;99.90;;;;;;4992841;28;20461;-75
2023/12/07 06:57:06;;;;;;;26.57;16.70;;;3.50;99.90;;;;;;4996165;28;20691;-74
2023/12/07 06:59:33;;;;;;;25.10;16.60;;;3.40;99.90;;;;;;4993730;28;20431;-74
2023/12/07 07:01:58;;;;;;;25.57;16.10;;;3.50;99.90;;;;;;4992949;28;20429;-75
2023/12/07 07:04:24;;;;;;;27.10;15.27;;;3.40;99.90;;;;;;4993585;28;20427;-74
2023/12/07 07:06:51;;;;;;;26.50;15.40;;;3.40;99.90;;;;;;4993045;28;20725;-76
2023/12/07 07:09:16;;;;;;;26.80;15.93;;;3.40;99.90;;;;;;4993402;28;20198;-76
2023/12/07 07:11:47;;;;;;;29.13;17.60;;;3.40;99.90;;;;;;4987346;28;20475;-76
2023/12/07 07:14:13;;;;;;;26.90;17.33;;;3.40;99.90;;;;;;4988750;28;20978;-75
2023/12/07 07:16:38;;;;;;;23.70;14.90;;;3.30;99.90;;;;;;4988974;28;20449;-76
2023/12/07 07:19:04;;;;;;;25.40;16.23;;;3.30;99.90;;;;;;4990495;28;20168;-75
2023/12/07 07:21:30;;;;;;;30.10;16.97;;;3.30;99.90;;;;;;4988840;28;20184;-74
2023/12/07 07:23:56;;;;;;;26.50;15.33;;;3.30;99.90;;;;;;4987174;28;20202;-75
2023/12/07 07:26:22;;;;;;;26.27;17.03;;;3.30;99.90;;;;;;4983245;28;20270;-76
2023/12/07 07:28:47;;;;;;;25.70;15.90;;;3.20;99.90;;;;;;4986775;28;20529;-73
2023/12/07 07:31:13;;;;;;;25.97;17.07;;;3.30;99.90;;;;;;4988558;28;20639;-73
2023/12/07 07:33:39;;;;;;;24.73;16.17;;;3.20;99.90;;;;;;4990871;28;20988;-72
2023/12/07 07:36:05;;;;;;;28.80;15.53;;;3.20;99.90;;;;;;4992703;28;20713;-73
2023/12/07 07:38:30;;;;;;;27.90;16.13;;;3.30;99.90;;;;;;4993078;28;20704;-73
2023/12/07 07:40:56;;;;;;;26.27;16.57;;;3.30;99.90;;;;;;4992742;28;20419;-73
2023/12/07 07:43:22;;;;;;;29.90;18.70;;;3.30;99.90;;;;;;4993126;28;20258;-72
2023/12/07 07:45:47;;;;;;;28.90;16.50;;;3.30;99.90;;;;;;4992086;28;20205;-72
2023/12/07 07:48:13;;;;;;;30.20;17.17;;;3.30;99.90;;;;;;4991769;28;20547;-73
2023/12/07 07:50:39;;;;;;;32.07;18.13;;;3.30;99.90;;;;;;4991001;28;20195;-73
2023/12/07 07:53:04;;;;;;;27.50;16.67;;;3.30;99.90;;;;;;4993068;28;20235;-73
2023/12/07 07:55:31;;;;;;;27.53;16.90;;;3.30;99.90;;;;;;4991891;28;20470;-72
2023/12/07 07:57:56;;;;;;;30.37;18.10;;;3.30;99.90;;;;;;4992559;28;20291;-72
2023/12/07 08:00:25;;;;;;;28.17;18.53;;;3.40;99.90;;;;;;4993270;28;21176;-72
2023/12/07 08:02:51;;;;;;;31.73;18.33;;;3.40;99.90;;;;;;4991828;28;20195;-73
2023/12/07 08:05:17;;;;;;;26.90;17.40;;;3.40;99.90;;;;;;4992588;28;20484;-73
2023/12/07 08:07:43;;;;;;;35.13;18.70;;;3.40;99.90;;;;;;4992475;28;20441;-73
2023/12/07 08:10:08;;;;;;;31.30;18.23;;;3.40;99.90;;;;;;4992614;28;20712;-73
2023/12/07 08:12:35;;;;;;;29.60;18.10;;;3.50;99.90;;;;;;5007929;28;20215;-72
2023/12/07 08:15:01;;;;;;;32.13;19.97;;;3.50;99.90;;;;;;4993098;28;20237;-72
2023/12/07 08:17:27;;;;;;;30.13;17.80;;;3.50;99.90;;;;;;4993529;28;20435;-73
2023/12/07 08:19:53;;;;;;;28.63;18.57;;;3.50;99.90;;;;;;4991763;28;21275;-72
2023/12/07 08:22:18;;;;;;;29.13;18.63;;;3.60;99.90;;;;;;4992565;28;20423;-72
2023/12/07 08:24:44;;;;;;;27.53;18.80;;;3.60;99.90;;;;;;5094580;27;20435;-73
2023/12/07 08:27:10;;;;;;;27.60;19.07;;;3.60;99.90;;;;;;4996511;28;20266;-73
2023/12/07 08:29:36;;;;;;;26.47;17.57;;;3.70;99.90;;;;;;4997143;28;20649;-73
2023/12/07 08:32:02;;;;;;;27.37;15.97;;;3.80;99.90;;;;;;4996743;28;20257;-73
2023/12/07 08:34:29;;;;;;;28.00;18.30;;;4.00;99.90;;;;;;4997300;28;20442;-73
2023/12/07 08:36:54;;;;;;;25.90;17.37;;;4.10;99.90;;;;;;4996102;28;20426;-73
2023/12/07 08:39:20;;;;;;;27.60;18.77;;;4.20;99.90;;;;;;4997768;28;20437;-73
2023/12/07 08:41:46;;;;;;;27.33;18.47;;;4.30;99.90;;;;;;4996133;28;20195;-74
2023/12/07 08:44:12;;;;;;;29.67;17.93;;;4.40;99.90;;;;;;4994142;28;20199;-73
2023/12/07 08:46:38;;;;;;;29.00;18.57;;;4.50;99.90;;;;;;4997565;28;20595;-74
2023/12/07 08:49:03;;;;;;;27.90;17.33;;;4.50;99.90;;;;;;4997255;28;20783;-73
2023/12/07 08:51:29;;;;;;;27.47;18.67;;;4.60;99.90;;;;;;4992283;28;20187;-73
2023/12/07 08:53:55;;;;;;;29.23;17.77;;;4.70;99.90;;;;;;4997023;28;20195;-73
2023/12/07 08:56:21;;;;;;;25.80;17.27;;;4.90;99.90;;;;;;4997485;28;20182;-73
2023/12/07 08:58:46;;;;;;;27.23;18.17;;;5.00;99.90;;;;;;4994760;28;20180;-74
2023/12/07 09:01:12;;;;;;;24.77;16.03;;;5.10;99.90;;;;;;4996327;28;20198;-73
2023/12/07 09:03:38;;;;;;;22.83;16.03;;;5.20;99.90;;;;;;4996769;28;20307;-73
2023/12/07 09:06:05;;;;;;;28.13;17.30;;;5.30;99.90;;;;;;4997027;28;20186;-73
2023/12/07 09:08:30;;;;;;;23.03;15.43;;;5.40;99.90;;;;;;4996780;28;20201;-73
2023/12/07 09:10:56;;;;;;;22.00;16.77;;;5.60;99.90;;;;;;4996976;28;20921;-73
2023/12/07 09:13:22;;;;;;;23.63;15.30;;;5.70;99.90;;;;;;4997716;28;20214;-73
2023/12/07 09:15:47;;;;;;;21.50;15.10;;;5.80;99.90;;;;;;4993562;28;20214;-73
2023/12/07 09:18:13;;;;;;;21.53;14.77;;;6.00;99.90;;;;;;4996953;28;20187;-73
2023/12/07 09:20:45;;;;;;;19.40;14.67;;;6.10;99.90;;;;;;4997560;28;20795;-73
2023/12/07 09:23:12;;;;;;;21.53;14.57;;;6.20;99.90;;;;;;4996344;28;20230;-73
2023/12/07 09:25:38;;;;;;;18.63;13.40;;;6.30;99.90;;;;;;4995683;28;20438;-73
2023/12/07 09:28:04;;;;;;;20.07;13.57;;;6.40;99.90;;;;;;4995874;28;20426;-73
2023/12/07 09:30:30;;;;;;;17.87;12.47;;;6.50;99.90;;;;;;4996631;28;20975;-73
2023/12/07 09:32:56;;;;;;;15.80;12.07;;;6.60;99.90;;;;;;4995794;28;20507;-73
2023/12/07 09:35:21;;;;;;;16.10;12.07;;;6.80;99.90;;;;;;4996270;28;20283;-73
2023/12/07 09:37:49;;;;;;;16.60;11.47;;;6.80;99.90;;;;;;4996741;28;20207;-73
2023/12/07 09:40:17;;;;;;;14.17;11.20;;;7.00;99.90;;;;;;4997656;28;20184;-73
2023/12/07 09:42:43;;;;;;;15.70;10.97;;;7.10;99.90;;;;;;4995467;28;20442;-73
2023/12/07 09:45:09;;;;;;;18.23;12.47;;;7.20;99.90;;;;;;4996721;28;20427;-73
2023/12/07 09:47:37;;;;;;;16.63;10.40;;;7.30;99.90;;;;;;4996700;28;20431;-73
2023/12/07 09:50:08;;;;;;;14.83;11.83;;;7.40;99.90;;;;;;4996976;28;20466;-73
2023/12/07 09:52:35;;;;;;;17.70;12.60;;;7.50;99.90;;;;;;4997566;28;20469;-73
2023/12/07 09:55:03;;;;;;;15.53;10.53;;;7.60;99.90;;;;;;4995929;28;20458;-73
2023/12/07 09:57:28;;;;;;;19.00;13.33;;;7.70;99.90;;;;;;4998868;28;20435;-73
2023/12/07 09:59:55;;;;;;;16.27;12.83;;;7.80;99.90;;;;;;4997367;28;20453;-71
2023/12/07 10:02:22;;;;;;;17.60;12.80;;;8.00;99.90;;;;;;4994989;28;20183;-73
2023/12/07 10:04:48;;;;;;;16.87;11.93;;;8.10;99.90;;;;;;4996295;28;20784;-73
2023/12/07 10:07:14;;;;;;;14.80;10.77;;;8.20;99.90;;;;;;4997296;28;20437;-73
2023/12/07 10:09:40;;;;;;;13.53;11.10;;;8.30;99.90;;;;;;4997665;28;20430;-72
2023/12/07 10:12:07;;;;;;;14.80;10.33;;;8.40;99.90;;;;;;4996520;28;20215;-72
2023/12/07 10:14:33;;;;;;;15.87;12.00;;;8.30;99.90;;;;;;4997648;28;20435;-72
2023/12/07 10:17:00;;;;;;;12.87;10.00;;;8.40;99.90;;;;;;4996752;28;20572;-72
2023/12/07 10:19:27;;;;;;;14.37;10.50;;;8.50;99.90;;;;;;4997910;28;20461;-72
2023/12/07 10:21:53;;;;;;;16.40;10.80;;;8.40;99.90;;;;;;4997104;28;20833;-72
2023/12/07 10:24:21;;;;;;;14.00;11.93;;;8.20;99.90;;;;;;4998161;28;20568;-72
2023/12/07 10:26:48;;;;;;;14.00;12.10;;;8.00;99.90;;;;;;4995788;28;20423;-72
2023/12/07 10:29:14;;;;;;;12.37;10.00;;;7.90;99.90;;;;;;4997271;28;20458;-72
2023/12/07 10:31:40;;;;;;;14.03;10.87;;;7.70;99.90;;;;;;4997118;28;21134;-72
2023/12/07 10:34:06;;;;;;;13.70;10.97;;;7.60;99.90;;;;;;4996684;28;20187;-72
2023/12/07 10:36:32;;;;;;;14.10;11.33;;;7.50;99.90;;;;;;4998295;28;20179;-72
2023/12/07 10:38:58;;;;;;;13.57;10.27;;;7.40;99.90;;;;;;4996791;28;20555;-72
2023/12/07 10:41:24;;;;;;;13.20;10.70;;;7.40;99.90;;;;;;4983088;28;21069;-72
2023/12/07 10:44:01;;;;;;;14.53;10.27;;;7.40;99.90;;;;;;4996366;28;20422;-73
2023/12/07 10:46:27;;;;;;;15.00;10.63;;;7.40;99.90;;;;;;4997703;28;20519;-72
2023/12/07 10:49:01;;;;;;;17.37;11.17;;;7.50;99.90;;;;;;4996609;28;20517;-73
2023/12/07 10:51:49;;;;;;;12.70;9.73;;;7.50;99.90;;;;;;4997816;28;21234;-73
2023/12/07 10:54:18;;;;;;;14.07;10.80;;;7.50;99.90;;;;;;4996352;28;20438;-73
2023/12/07 10:56:45;;;;;;;14.17;10.57;;;7.50;99.90;;;;;;4997811;28;20434;-73
2023/12/07 10:59:15;;;;;;;13.37;9.50;;;7.50;99.90;;;;;;4996388;28;20511;-73
2023/12/07 11:01:42;;;;;;;11.17;9.10;;;7.40;99.90;;;;;;5093898;27;20959;-73
2023/12/07 11:04:12;;;;;;;12.40;10.23;;;7.30;99.90;;;;;;4997373;28;20435;-73
2023/12/07 11:06:44;;;;;;;12.30;8.83;;;7.20;99.90;;;;;;4997930;28;20502;-73
2023/12/07 11:09:14;;;;;;;10.20;9.20;;;7.10;99.90;;;;;;4996921;28;20435;-73
2023/12/07 11:11:48;;;;;;;12.77;9.13;;;7.00;99.90;;;;;;4998250;28;20864;-73
2023/12/07 11:14:16;;;;;;;12.20;8.73;;;6.90;99.90;;;;;;4996536;28;20430;-73
2023/12/07 11:16:48;;;;;;;13.17;9.57;;;6.90;99.90;;;;;;4997127;28;21532;-73
2023/12/07 11:19:32;;;;;;;13.47;9.67;;;7.00;99.90;;;;;;4996777;28;20461;-73
2023/12/07 11:22:01;;;;;;;10.97;8.80;;;7.00;99.90;;;;;;4996385;28;20450;-72
2023/12/07 11:24:27;;;;;;;11.97;9.43;;;7.10;99.90;;;;;;4996795;28;20435;-72
2023/12/07 11:26:56;;;;;;;16.20;9.57;;;7.10;99.90;;;;;;4997342;28;20525;-73
2023/12/07 11:29:25;;;;;;;10.60;8.33;;;7.00;99.90;;;;;;4997619;28;20294;-73
2023/12/07 11:32:00;;;;;;;11.57;8.60;;;7.00;99.90;;;;;;4996487;28;20475;-72
2023/12/07 11:34:40;;;;;;;9.40;7.67;;;6.90;99.90;;;;;;4998734;28;21280;-73
2023/12/07 11:37:10;;;;;;;10.43;9.27;;;6.90;99.90;;;;;;4996827;28;20529;-73
2023/12/07 11:39:43;;;;;;;9.73;8.37;;;6.90;99.90;;;;;;4997931;28;20426;-73
2023/12/07 11:42:19;;;;;;;11.47;9.37;;;6.90;99.90;;;;;;4995421;28;20796;-73
2023/12/07 11:44:50;;;;;;;12.87;9.70;;;7.10;99.90;;;;;;4995465;28;20437;-72
2023/12/07 11:47:20;;;;;;;12.67;9.67;;;7.30;99.90;;;;;;4997136;28;20664;-73
2023/12/07 11:49:47;;;;;;;11.40;8.80;;;7.40;99.90;;;;;;4996023;28;20440;-73
2023/12/07 11:52:17;;;;;;;11.97;10.17;;;7.60;99.90;;;;;;4996281;28;20862;-73
2023/12/07 11:54:46;;;;;;;11.77;9.83;;;7.80;99.90;;;;;;4995240;28;20932;-73
2023/12/07 11:57:14;;;;;;;12.60;9.20;;;8.10;99.90;;;;;;4996768;28;20867;-73
2023/12/07 11:59:40;;;;;;;13.10;9.27;;;8.70;99.90;;;;;;4999407;28;20879;-72
2023/12/07 12:02:05;;;;;;;11.37;9.80;;;9.60;99.90;;;;;;4996835;28;20426;-72
2023/12/07 12:04:31;;;;;;;10.47;9.37;;;10.70;99.90;;;;;;4997988;28;20175;-73
2023/12/07 12:06:57;;;;;;;9.70;8.70;;;11.70;99.90;;;;;;4996092;28;20219;-73
2023/12/07 12:09:25;;;;;;;10.20;7.70;;;12.40;99.90;;;;;;4999355;28;20649;-73
2023/12/07 12:11:51;;;;;;;9.57;8.50;;;12.40;99.90;;;;;;4995608;28;20226;-72
2023/12/07 12:14:17;;;;;;;11.50;9.10;;;11.50;99.20;;;;;;4995374;28;20439;-73
2023/12/07 12:16:44;;;;;;;10.60;9.20;;;10.60;99.90;;;;;;4995956;28;20187;-72
2023/12/07 12:19:10;;;;;;;11.60;9.33;;;9.70;99.90;;;;;;4996626;28;20427;-72
2023/12/07 12:21:39;;;;;;;13.03;10.23;;;9.00;99.90;;;;;;4999898;28;20422;-72
2023/12/07 12:24:05;;;;;;;12.93;10.30;;;8.50;99.90;;;;;;4997109;28;20267;-72
2023/12/07 12:26:34;;;;;;;12.47;10.13;;;8.10;99.90;;;;;;4999084;28;20435;-71
2023/12/07 12:29:01;;;;;;;12.80;9.77;;;7.80;99.90;;;;;;4997109;28;20937;-72
2023/12/07 12:31:27;;;;;;;12.13;9.77;;;7.50;99.90;;;;;;4998637;28;20428;-72
2023/12/07 12:33:53;;;;;;;10.77;9.30;;;7.30;99.90;;;;;;4997068;28;20974;-72
2023/12/07 12:36:26;;;;;;;10.93;9.10;;;7.10;99.90;;;;;;4997199;28;20861;-72